sensor_id;sensor_type;location;lat;lon;timestamp;pressure;altitude;pressure_sealevel;temperature;humidity
69318;BME280;56457;52.190;4.440;2023-01-30T00:00:29;101870.44;;;7.98;100.00
69318;BME280;56457;52.190;4.440;2023-01-30T00:01:30;101857.47;;;8.03;100.00
69318;BME280;56457;52.190;4.440;2023-01-30T00:02:31;101854.88;;;8.04;100.00
69318;BME280;56457;52.190;4.440;2023-01-30T00:03:31;101850.50;;;8.03;100.00
69318;BME280;56457;52.190;4.440;2023-01-30T00:04:33;101848.75;;;8.04;100.00
69318;BME280;56457;52.190;4.440;2023-01-30T00:05:33;101842.59;;;8.00;100.00
69318;BME280;56457;52.190;4.440;2023-01-30T00:06:33;101840.84;;;8.01;100.00
69318;BME280;56457;52.190;4.440;2023-01-30T00:07:34;101839.16;;;8.01;100.00
69318;BME280;56457;52.190;4.440;2023-01-30T00:08:34;101846.06;;;8.01;100.00
69318;BME280;56457;52.190;4.440;2023-01-30T00:09:34;101836.47;;;8.00;100.00
69318;BME280;56457;52.190;4.440;2023-01-30T00:10:34;101832.13;;;8.00;100.00
69318;BME280;56457;52.190;4.440;2023-01-30T00:11:35;101827.88;;;8.05;100.00
69318;BME280;56457;52.190;4.440;2023-01-30T00:12:35;101831.44;;;8.09;100.00
69318;BME280;56457;52.190;4.440;2023-01-30T00:13:35;101822.66;;;8.07;100.00
69318;BME280;56457;52.190;4.440;2023-01-30T00:14:36;101840.19;;;8.13;100.00
69318;BME280;56457;52.190;4.440;2023-01-30T00:15:36;101828.88;;;8.12;100.00
69318;BME280;56457;52.190;4.440;2023-01-30T00:16:36;101821.06;;;8.14;100.00
69318;BME280;56457;52.190;4.440;2023-01-30T00:17:37;101822.75;;;8.10;100.00
69318;BME280;56457;52.190;4.440;2023-01-30T00:18:38;101820.16;;;8.12;100.00
69318;BME280;56457;52.190;4.440;2023-01-30T00:19:38;101817.53;;;8.12;100.00
69318;BME280;56457;52.190;4.440;2023-01-30T00:20:38;101810.63;;;8.15;100.00
69318;BME280;56457;52.190;4.440;2023-01-30T00:21:39;101808.16;;;8.23;100.00
69318;BME280;56457;52.190;4.440;2023-01-30T00:22:39;101800.25;;;8.20;100.00
69318;BME280;56457;52.190;4.440;2023-01-30T00:23:39;101811.50;;;8.14;100.00
69318;BME280;56457;52.190;4.440;2023-01-30T00:24:40;101814.16;;;8.17;100.00
69318;BME280;56457;52.190;4.440;2023-01-30T00:25:43;101808.00;;;8.14;100.00
69318;BME280;56457;52.190;4.440;2023-01-30T00:26:44;101815.91;;;8.18;100.00
69318;BME280;56457;52.190;4.440;2023-01-30T00:27:44;101803.78;;;8.20;100.00
69318;BME280;56457;52.190;4.440;2023-01-30T00:28:44;101801.03;;;8.14;100.00
69318;BME280;56457;52.190;4.440;2023-01-30T00:29:44;101802.84;;;8.20;100.00
69318;BME280;56457;52.190;4.440;2023-01-30T00:30:52;101804.66;;;8.21;100.00
69318;BME280;56457;52.190;4.440;2023-01-30T00:31:53;101810.69;;;8.20;100.00
69318;BME280;56457;52.190;4.440;2023-01-30T00:32:56;101801.94;;;8.16;100.00
69318;BME280;56457;52.190;4.440;2023-01-30T00:33:57;101798.47;;;8.17;100.00
69318;BME280;56457;52.190;4.440;2023-01-30T00:34:57;101808.13;;;8.21;100.00
69318;BME280;56457;52.190;4.440;2023-01-30T00:36:00;101785.47;;;8.20;100.00
69318;BME280;56457;52.190;4.440;2023-01-30T00:37:00;101786.38;;;8.22;100.00
69318;BME280;56457;52.190;4.440;2023-01-30T00:38:00;101780.19;;;8.19;100.00
69318;BME280;56457;52.190;4.440;2023-01-30T00:39:01;101779.31;;;8.18;100.00
69318;BME280;56457;52.190;4.440;2023-01-30T00:40:01;101781.91;;;8.17;100.00
69318;BME280;56457;52.190;4.440;2023-01-30T00:41:01;101773.22;;;8.18;100.00
69318;BME280;56457;52.190;4.440;2023-01-30T00:42:02;101782.00;;;8.23;100.00
69318;BME280;56457;52.190;4.440;2023-01-30T00:43:20;101778.59;;;8.27;100.00
69318;BME280;56457;52.190;4.440;2023-01-30T00:44:39;101784.66;;;8.26;100.00
69318;BME280;56457;52.190;4.440;2023-01-30T00:45:58;101776.72;;;8.20;100.00
69318;BME280;56457;52.190;4.440;2023-01-30T00:47:18;101783.78;;;8.24;100.00
69318;BME280;56457;52.190;4.440;2023-01-30T00:48:18;101777.66;;;8.23;100.00
69318;BME280;56457;52.190;4.440;2023-01-30T00:49:18;101762.81;;;8.21;100.00
69318;BME280;56457;52.190;4.440;2023-01-30T00:50:19;101749.69;;;8.18;100.00
69318;BME280;56457;52.190;4.440;2023-01-30T00:51:19;101760.16;;;8.19;100.00
69318;BME280;56457;52.190;4.440;2023-01-30T00:52:19;101753.25;;;8.23;100.00
69318;BME280;56457;52.190;4.440;2023-01-30T00:53:20;101748.81;;;8.19;100.00
69318;BME280;56457;52.190;4.440;2023-01-30T00:54:20;101748.03;;;8.23;100.00
69318;BME280;56457;52.190;4.440;2023-01-30T00:55:20;101742.72;;;8.18;100.00
69318;BME280;56457;52.190;4.440;2023-01-30T00:56:21;101727.88;;;8.17;100.00
69318;BME280;56457;52.190;4.440;2023-01-30T00:57:21;101730.56;;;8.20;100.00
69318;BME280;56457;52.190;4.440;2023-01-30T00:58:21;101735.81;;;8.20;100.00
69318;BME280;56457;52.190;4.440;2023-01-30T00:59:22;101733.19;;;8.20;100.00
69318;BME280;56457;52.190;4.440;2023-01-30T01:00:22;101742.78;;;8.21;100.00
69318;BME280;56457;52.190;4.440;2023-01-30T01:01:23;101728.78;;;8.18;100.00
69318;BME280;56457;52.190;4.440;2023-01-30T01:02:23;101731.44;;;8.21;100.00
69318;BME280;56457;52.190;4.440;2023-01-30T01:03:23;101730.59;;;8.22;100.00
69318;BME280;56457;52.190;4.440;2023-01-30T01:04:24;101729.66;;;8.20;100.00
69318;BME280;56457;52.190;4.440;2023-01-30T01:05:24;101735.84;;;8.25;100.00
69318;BME280;56457;52.190;4.440;2023-01-30T01:06:24;101723.63;;;8.22;100.00
69318;BME280;56457;52.190;4.440;2023-01-30T01:07:24;101729.66;;;8.18;100.00
69318;BME280;56457;52.190;4.440;2023-01-30T01:08:25;101732.28;;;8.20;100.00
69318;BME280;56457;52.190;4.440;2023-01-30T01:09:25;101738.38;;;8.19;100.00
69318;BME280;56457;52.190;4.440;2023-01-30T01:10:25;101737.47;;;8.18;100.00
69318;BME280;56457;52.190;4.440;2023-01-30T01:11:26;101728.78;;;8.19;100.00
69318;BME280;56457;52.190;4.440;2023-01-30T01:12:26;101727.13;;;8.23;100.00
69318;BME280;56457;52.190;4.440;2023-01-30T01:13:26;101708.81;;;8.23;100.00
69318;BME280;56457;52.190;4.440;2023-01-30T01:14:27;101703.56;;;8.21;100.00
69318;BME280;56457;52.190;4.440;2023-01-30T01:15:27;101709.59;;;8.17;100.00
69318;BME280;56457;52.190;4.440;2023-01-30T01:16:28;101702.69;;;8.21;100.00
69318;BME280;56457;52.190;4.440;2023-01-30T01:17:28;101709.72;;;8.25;100.00
69318;BME280;56457;52.190;4.440;2023-01-30T01:18:28;101714.03;;;8.23;100.00
69318;BME280;56457;52.190;4.440;2023-01-30T01:19:29;101715.78;;;8.24;100.00
69318;BME280;56457;52.190;4.440;2023-01-30T01:20:29;101709.69;;;8.22;100.00
69318;BME280;56457;52.190;4.440;2023-01-30T01:21:29;101708.03;;;8.27;100.00
69318;BME280;56457;52.190;4.440;2023-01-30T01:22:30;101708.81;;;8.23;100.00
69318;BME280;56457;52.190;4.440;2023-01-30T01:23:30;101700.09;;;8.21;100.00
69318;BME280;56457;52.190;4.440;2023-01-30T01:24:30;101706.97;;;8.17;100.00
69318;BME280;56457;52.190;4.440;2023-01-30T01:25:30;101710.50;;;8.19;100.00
69318;BME280;56457;52.190;4.440;2023-01-30T01:26:31;101711.34;;;8.18;100.00
69318;BME280;56457;52.190;4.440;2023-01-30T01:27:32;101705.22;;;8.16;100.00
69318;BME280;56457;52.190;4.440;2023-01-30T01:28:32;101716.53;;;8.15;100.00
69318;BME280;56457;52.190;4.440;2023-01-30T01:29:33;101711.34;;;8.18;100.00
69318;BME280;56457;52.190;4.440;2023-01-30T01:30:33;101716.59;;;8.20;100.00
69318;BME280;56457;52.190;4.440;2023-01-30T01:31:33;101714.84;;;8.19;100.00
69318;BME280;56457;52.190;4.440;2023-01-30T01:32:34;101721.00;;;8.21;100.00
69318;BME280;56457;52.190;4.440;2023-01-30T01:33:34;101712.19;;;8.16;100.00
69318;BME280;56457;52.190;4.440;2023-01-30T01:34:34;101719.19;;;8.17;100.00
69318;BME280;56457;52.190;4.440;2023-01-30T01:35:38;101714.81;;;8.17;100.00
69318;BME280;56457;52.190;4.440;2023-01-30T01:36:39;101715.69;;;8.16;100.00
69318;BME280;56457;52.190;4.440;2023-01-30T01:37:39;101713.91;;;8.14;100.00
69318;BME280;56457;52.190;4.440;2023-01-30T01:38:40;101711.34;;;8.18;100.00
69318;BME280;56457;52.190;4.440;2023-01-30T01:39:41;101717.34;;;8.13;100.00
69318;BME280;56457;52.190;4.440;2023-01-30T01:41:00;101714.75;;;8.13;100.00
69318;BME280;56457;52.190;4.440;2023-01-30T01:42:09;101724.41;;;8.17;100.00
69318;BME280;56457;52.190;4.440;2023-01-30T01:43:19;101721.88;;;8.21;100.00
69318;BME280;56457;52.190;4.440;2023-01-30T01:44:19;101715.69;;;8.16;100.00
69318;BME280;56457;52.190;4.440;2023-01-30T01:45:23;101723.47;;;8.13;100.00
69318;BME280;56457;52.190;4.440;2023-01-30T01:46:24;101718.22;;;8.12;100.00
69318;BME280;56457;52.190;4.440;2023-01-30T01:47:26;101715.50;;;8.05;100.00
69318;BME280;56457;52.190;4.440;2023-01-30T01:48:34;101716.44;;;8.07;100.00
69318;BME280;56457;52.190;4.440;2023-01-30T01:49:35;101706.78;;;8.06;100.00
69318;BME280;56457;52.190;4.440;2023-01-30T01:50:38;101705.13;;;8.08;100.00
69318;BME280;56457;52.190;4.440;2023-01-30T01:51:47;101715.56;;;8.08;100.00
69318;BME280;56457;52.190;4.440;2023-01-30T01:52:49;101710.28;;;8.07;100.00
69318;BME280;56457;52.190;4.440;2023-01-30T01:55:15;101718.22;;;8.12;100.00
69318;BME280;56457;52.190;4.440;2023-01-30T01:56:17;101713.06;;;8.15;100.00
69318;BME280;56457;52.190;4.440;2023-01-30T01:57:39;101721.81;;;8.20;100.00
69318;BME280;56457;52.190;4.440;2023-01-30T01:58:45;101723.66;;;8.25;100.00
69318;BME280;56457;52.190;4.440;2023-01-30T01:59:54;101714.88;;;8.20;100.00
69318;BME280;56457;52.190;4.440;2023-01-30T02:00:56;101721.00;;;8.21;100.00
69318;BME280;56457;52.190;4.440;2023-01-30T02:01:59;101718.41;;;8.24;100.00
69318;BME280;56457;52.190;4.440;2023-01-30T02:03:01;101717.56;;;8.25;100.00
69318;BME280;56457;52.190;4.440;2023-01-30T02:04:03;101716.66;;;8.21;100.00
69318;BME280;56457;52.190;4.440;2023-01-30T02:05:04;101722.78;;;8.25;100.00
69318;BME280;56457;52.190;4.440;2023-01-30T02:06:05;101704.53;;;8.26;100.00
69318;BME280;56457;52.190;4.440;2023-01-30T02:07:06;101707.06;;;8.22;100.00
69318;BME280;56457;52.190;4.440;2023-01-30T02:08:12;101714.03;;;8.21;100.00
69318;BME280;56457;52.190;4.440;2023-01-30T02:09:13;101710.56;;;8.24;100.00
69318;BME280;56457;52.190;4.440;2023-01-30T02:10:14;101709.72;;;8.25;100.00
69318;BME280;56457;52.190;4.440;2023-01-30T02:11:28;101707.09;;;8.25;100.00
69318;BME280;56457;52.190;4.440;2023-01-30T02:12:29;101696.69;;;8.28;100.00
69318;BME280;56457;52.190;4.440;2023-01-30T02:13:30;101690.63;;;8.30;100.00
69318;BME280;56457;52.190;4.440;2023-01-30T02:14:31;101697.66;;;8.34;100.00
69318;BME280;56457;52.190;4.440;2023-01-30T02:15:32;101696.78;;;8.32;100.00
69318;BME280;56457;52.190;4.440;2023-01-30T02:16:35;101701.06;;;8.27;100.00
69318;BME280;56457;52.190;4.440;2023-01-30T02:17:36;101692.34;;;8.28;100.00
69318;BME280;56457;52.190;4.440;2023-01-30T02:18:37;101701.00;;;8.26;100.00
69318;BME280;56457;52.190;4.440;2023-01-30T02:19:52;101700.19;;;8.27;100.00
69318;BME280;56457;52.190;4.440;2023-01-30T02:23:32;101693.13;;;8.23;100.00
69318;BME280;56457;52.190;4.440;2023-01-30T02:28:10;101692.34;;;8.27;100.00
69318;BME280;56457;52.190;4.440;2023-01-30T02:30:41;101694.97;;;8.28;100.00
69318;BME280;56457;52.190;4.440;2023-01-30T02:31:46;101693.16;;;8.24;100.00
69318;BME280;56457;52.190;4.440;2023-01-30T02:34:13;101709.69;;;8.23;100.00
69318;BME280;56457;52.190;4.440;2023-01-30T02:36:26;101699.19;;;8.20;100.00
69318;BME280;56457;52.190;4.440;2023-01-30T02:43:32;101697.47;;;8.21;100.00
69318;BME280;56457;52.190;4.440;2023-01-30T02:44:49;101699.19;;;8.20;100.00
69318;BME280;56457;52.190;4.440;2023-01-30T02:47:02;101713.16;;;8.21;100.00
69318;BME280;56457;52.190;4.440;2023-01-30T02:48:05;101704.44;;;8.20;100.00
69318;BME280;56457;52.190;4.440;2023-01-30T02:49:08;101705.31;;;8.21;100.00
69318;BME280;56457;52.190;4.440;2023-01-30T02:50:11;101702.69;;;8.21;100.00
69318;BME280;56457;52.190;4.440;2023-01-30T02:51:18;101694.00;;;8.22;100.00
69318;BME280;56457;52.190;4.440;2023-01-30T02:52:19;101700.09;;;8.24;100.00
69318;BME280;56457;52.190;4.440;2023-01-30T02:53:21;101697.50;;;8.25;100.00
69318;BME280;56457;52.190;4.440;2023-01-30T02:54:22;101697.50;;;8.24;100.00
69318;BME280;56457;52.190;4.440;2023-01-30T02:55:23;101707.13;;;8.26;100.00
69318;BME280;56457;52.190;4.440;2023-01-30T02:56:24;101696.69;;;8.28;100.00
69318;BME280;56457;52.190;4.440;2023-01-30T02:57:24;101697.50;;;8.25;100.00
69318;BME280;56457;52.190;4.440;2023-01-30T02:58:28;101700.09;;;8.24;100.00
69318;BME280;56457;52.190;4.440;2023-01-30T02:59:32;101707.09;;;8.25;100.00
69318;BME280;56457;52.190;4.440;2023-01-30T03:01:46;101708.75;;;8.20;100.00
69318;BME280;56457;52.190;4.440;2023-01-30T03:11:23;101701.00;;;8.26;100.00
69318;BME280;56457;52.190;4.440;2023-01-30T03:12:38;101689.72;;;8.27;100.00
69318;BME280;56457;52.190;4.440;2023-01-30T03:15:48;101685.38;;;8.29;100.00
69318;BME280;56457;52.190;4.440;2023-01-30T03:16:49;101685.41;;;8.32;100.00
69318;BME280;56457;52.190;4.440;2023-01-30T03:17:51;101676.75;;;8.33;100.00
69318;BME280;56457;52.190;4.440;2023-01-30T03:18:52;101676.59;;;8.25;100.00
69318;BME280;56457;52.190;4.440;2023-01-30T03:19:52;101679.19;;;8.22;100.00
69318;BME280;56457;52.190;4.440;2023-01-30T03:20:53;101683.53;;;8.20;100.00
69318;BME280;56457;52.190;4.440;2023-01-30T03:21:53;101688.69;;;8.19;100.00
69318;BME280;56457;52.190;4.440;2023-01-30T03:22:54;101694.00;;;8.23;100.00
69318;BME280;56457;52.190;4.440;2023-01-30T03:23:54;101681.81;;;8.24;100.00
69318;BME280;56457;52.190;4.440;2023-01-30T03:24:54;101687.00;;;8.21;100.00
69318;BME280;56457;52.190;4.440;2023-01-30T03:25:55;101681.72;;;8.19;100.00
69318;BME280;56457;52.190;4.440;2023-01-30T03:26:57;101686.94;;;8.16;100.00
69318;BME280;56457;52.190;4.440;2023-01-30T03:27:59;101686.06;;;8.16;100.00
69318;BME280;56457;52.190;4.440;2023-01-30T03:29:01;101685.16;;;8.14;100.00
69318;BME280;56457;52.190;4.440;2023-01-30T03:30:01;101685.16;;;8.14;100.00
69318;BME280;56457;52.190;4.440;2023-01-30T03:31:01;101685.13;;;8.12;100.00
69318;BME280;56457;52.190;4.440;2023-01-30T03:32:02;101695.63;;;8.14;100.00
69318;BME280;56457;52.190;4.440;2023-01-30T03:33:02;101693.06;;;8.20;100.00
69318;BME280;56457;52.190;4.440;2023-01-30T03:34:03;101701.75;;;8.16;100.00
69318;BME280;56457;52.190;4.440;2023-01-30T03:35:03;101695.72;;;8.21;100.00
69318;BME280;56457;52.190;4.440;2023-01-30T03:36:04;101707.88;;;8.19;100.00
69318;BME280;56457;52.190;4.440;2023-01-30T03:37:04;101703.53;;;8.20;100.00
69318;BME280;56457;52.190;4.440;2023-01-30T03:38:05;101706.22;;;8.24;100.00
69318;BME280;56457;52.190;4.440;2023-01-30T03:39:05;101711.44;;;8.24;100.00
69318;BME280;56457;52.190;4.440;2023-01-30T03:40:06;101707.97;;;8.25;100.00
69318;BME280;56457;52.190;4.440;2023-01-30T03:41:06;101692.28;;;8.24;100.00
69318;BME280;56457;52.190;4.440;2023-01-30T03:42:07;101696.69;;;8.26;100.00
69318;BME280;56457;52.190;4.440;2023-01-30T03:43:07;101706.28;;;8.27;100.00
69318;BME280;56457;52.190;4.440;2023-01-30T03:44:07;101696.63;;;8.25;100.00
69318;BME280;56457;52.190;4.440;2023-01-30T03:45:09;101695.81;;;8.27;100.00
69318;BME280;56457;52.190;4.440;2023-01-30T03:46:09;101686.28;;;8.31;100.00
69318;BME280;56457;52.190;4.440;2023-01-30T03:47:09;101682.75;;;8.27;100.00
69318;BME280;56457;52.190;4.440;2023-01-30T03:48:10;101681.03;;;8.29;100.00
69318;BME280;56457;52.190;4.440;2023-01-30T03:49:10;101682.69;;;8.26;100.00
69318;BME280;56457;52.190;4.440;2023-01-30T03:50:11;101678.31;;;8.23;100.00
69318;BME280;56457;52.190;4.440;2023-01-30T03:51:12;101689.72;;;8.28;100.00
69318;BME280;56457;52.190;4.440;2023-01-30T03:52:12;101680.22;;;8.33;100.00
69318;BME280;56457;52.190;4.440;2023-01-30T03:53:12;101690.75;;;8.38;100.00
69318;BME280;56457;52.190;4.440;2023-01-30T03:54:13;101677.63;;;8.35;100.00
69318;BME280;56457;52.190;4.440;2023-01-30T03:55:13;101683.72;;;8.34;100.00
69318;BME280;56457;52.190;4.440;2023-01-30T03:56:14;101686.28;;;8.31;100.00
69318;BME280;56457;52.190;4.440;2023-01-30T03:57:14;101685.41;;;8.32;100.00
69318;BME280;56457;52.190;4.440;2023-01-30T03:58:14;101669.69;;;8.29;100.00
69318;BME280;56457;52.190;4.440;2023-01-30T03:59:14;101664.56;;;8.35;100.00
69318;BME280;56457;52.190;4.440;2023-01-30T04:00:15;101675.06;;;8.36;100.00
69318;BME280;56457;52.190;4.440;2023-01-30T04:01:15;101655.75;;;8.30;100.00
69318;BME280;56457;52.190;4.440;2023-01-30T04:02:16;101661.88;;;8.30;100.00
69318;BME280;56457;52.190;4.440;2023-01-30T04:03:22;101667.03;;;8.26;100.00
69318;BME280;56457;52.190;4.440;2023-01-30T04:04:22;101660.88;;;8.22;100.00
69318;BME280;56457;52.190;4.440;2023-01-30T04:05:22;101669.63;;;8.24;100.00
69318;BME280;56457;52.190;4.440;2023-01-30T04:06:22;101666.03;;;8.19;100.00
69318;BME280;56457;52.190;4.440;2023-01-30T04:07:23;101663.50;;;8.24;100.00
69318;BME280;56457;52.190;4.440;2023-01-30T04:08:23;101678.34;;;8.25;100.00
69318;BME280;56457;52.190;4.440;2023-01-30T04:09:23;101675.69;;;8.22;100.00
69318;BME280;56457;52.190;4.440;2023-01-30T04:10:24;101679.25;;;8.27;100.00
69318;BME280;56457;52.190;4.440;2023-01-30T04:11:24;101674.84;;;8.26;100.00
69318;BME280;56457;52.190;4.440;2023-01-30T04:12:25;101668.81;;;8.28;100.00
69318;BME280;56457;52.190;4.440;2023-01-30T04:13:25;101678.41;;;8.29;100.00
69318;BME280;56457;52.190;4.440;2023-01-30T04:14:25;101680.13;;;8.27;100.00
69318;BME280;56457;52.190;4.440;2023-01-30T04:15:26;101680.09;;;8.26;100.00
69318;BME280;56457;52.190;4.440;2023-01-30T04:16:26;101692.50;;;8.38;100.00
69318;BME280;56457;52.190;4.440;2023-01-30T04:17:26;101691.66;;;8.39;100.00
69318;BME280;56457;52.190;4.440;2023-01-30T04:18:26;101694.25;;;8.37;100.00
69318;BME280;56457;52.190;4.440;2023-01-30T04:19:27;101694.19;;;8.34;100.00
69318;BME280;56457;52.190;4.440;2023-01-30T04:20:27;101698.53;;;8.35;100.00
69318;BME280;56457;52.190;4.440;2023-01-30T04:21:27;101687.16;;;8.31;100.00
69318;BME280;56457;52.190;4.440;2023-01-30T04:22:28;101704.75;;;8.39;100.00
69318;BME280;56457;52.190;4.440;2023-01-30T04:23:28;101689.81;;;8.34;100.00
69318;BME280;56457;52.190;4.440;2023-01-30T04:24:28;101691.56;;;8.34;100.00
69318;BME280;56457;52.190;4.440;2023-01-30T04:25:28;101698.59;;;8.36;100.00
69318;BME280;56457;52.190;4.440;2023-01-30T04:26:29;101701.22;;;8.36;100.00
69318;BME280;56457;52.190;4.440;2023-01-30T04:27:29;101692.50;;;8.38;100.00
69318;BME280;56457;52.190;4.440;2023-01-30T04:28:29;101696.09;;;8.44;100.00
69318;BME280;56457;52.190;4.440;2023-01-30T04:29:30;101675.13;;;8.41;100.00
69318;BME280;56457;52.190;4.440;2023-01-30T04:30:30;101683.75;;;8.35;100.00
69318;BME280;56457;52.190;4.440;2023-01-30T04:31:30;101695.09;;;8.36;100.00
69318;BME280;56457;52.190;4.440;2023-01-30T04:32:30;101689.00;;;8.35;100.00
69318;BME280;56457;52.190;4.440;2023-01-30T04:33:31;101702.06;;;8.35;100.00
69318;BME280;56457;52.190;4.440;2023-01-30T04:34:34;101692.50;;;8.36;100.00
69318;BME280;56457;52.190;4.440;2023-01-30T04:35:34;101697.72;;;8.36;100.00
69318;BME280;56457;52.190;4.440;2023-01-30T04:36:34;101695.03;;;8.33;100.00
69318;BME280;56457;52.190;4.440;2023-01-30T04:37:36;101703.84;;;8.38;100.00
69318;BME280;56457;52.190;4.440;2023-01-30T04:38:36;101690.75;;;8.36;100.00
69318;BME280;56457;52.190;4.440;2023-01-30T04:39:36;101699.53;;;8.40;100.00
69318;BME280;56457;52.190;4.440;2023-01-30T04:40:37;101705.56;;;8.36;100.00
69318;BME280;56457;52.190;4.440;2023-01-30T04:41:37;101698.53;;;8.35;100.00
69318;BME280;56457;52.190;4.440;2023-01-30T04:42:37;101688.16;;;8.38;100.00
69318;BME280;56457;52.190;4.440;2023-01-30T04:43:38;101696.91;;;8.39;100.00
69318;BME280;56457;52.190;4.440;2023-01-30T04:44:38;101692.50;;;8.36;100.00
69318;BME280;56457;52.190;4.440;2023-01-30T04:45:41;101703.69;;;8.29;100.00
69318;BME280;56457;52.190;4.440;2023-01-30T04:46:41;101699.34;;;8.31;100.00
69318;BME280;56457;52.190;4.440;2023-01-30T04:47:41;101717.63;;;8.28;100.00
69318;BME280;56457;52.190;4.440;2023-01-30T04:48:42;101716.66;;;8.23;100.00
69318;BME280;56457;52.190;4.440;2023-01-30T04:49:42;101704.38;;;8.17;100.00
69318;BME280;56457;52.190;4.440;2023-01-30T04:50:43;101699.91;;;8.10;100.00
69318;BME280;56457;52.190;4.440;2023-01-30T04:51:43;101712.19;;;8.14;100.00
69318;BME280;56457;52.190;4.440;2023-01-30T04:52:44;101716.47;;;8.10;100.00
69318;BME280;56457;52.190;4.440;2023-01-30T04:53:44;101717.34;;;8.13;100.00
69318;BME280;56457;52.190;4.440;2023-01-30T04:54:44;101716.47;;;8.12;100.00
69318;BME280;56457;52.190;4.440;2023-01-30T04:55:45;101718.13;;;8.05;100.00
69318;BME280;56457;52.190;4.440;2023-01-30T04:56:45;101703.25;;;8.01;100.00
69318;BME280;56457;52.190;4.440;2023-01-30T04:57:45;101698.94;;;8.03;100.00
69318;BME280;56457;52.190;4.440;2023-01-30T04:58:46;101707.56;;;8.01;100.00
69318;BME280;56457;52.190;4.440;2023-01-30T04:59:46;101706.66;;;7.97;100.00
69318;BME280;56457;52.190;4.440;2023-01-30T05:00:46;101713.66;;;7.98;100.00
69318;BME280;56457;52.190;4.440;2023-01-30T05:01:47;101705.78;;;7.97;100.00
69318;BME280;56457;52.190;4.440;2023-01-30T05:02:47;101711.88;;;7.97;100.00
69318;BME280;56457;52.190;4.440;2023-01-30T05:03:48;101711.00;;;7.95;100.00
69318;BME280;56457;52.190;4.440;2023-01-30T05:04:48;101715.28;;;7.93;100.00
69318;BME280;56457;52.190;4.440;2023-01-30T05:05:49;101707.44;;;7.92;100.00
69318;BME280;56457;52.190;4.440;2023-01-30T05:06:49;101711.00;;;7.97;100.00
69318;BME280;56457;52.190;4.440;2023-01-30T05:07:50;101705.78;;;7.95;100.00
69318;BME280;56457;52.190;4.440;2023-01-30T05:08:51;101703.97;;;7.94;100.00
69318;BME280;56457;52.190;4.440;2023-01-30T05:09:52;101707.41;;;7.90;100.00
69318;BME280;56457;52.190;4.440;2023-01-30T05:10:52;101707.34;;;7.87;100.00
69318;BME280;56457;52.190;4.440;2023-01-30T05:11:52;101709.91;;;7.82;100.00
69318;BME280;56457;52.190;4.440;2023-01-30T05:12:53;101702.84;;;7.77;100.00
69318;BME280;56457;52.190;4.440;2023-01-30T05:13:53;101709.81;;;7.76;100.00
69318;BME280;56457;52.190;4.440;2023-01-30T05:14:53;101701.16;;;7.80;100.00
69318;BME280;56457;52.190;4.440;2023-01-30T05:15:54;101703.75;;;7.80;100.00
69318;BME280;56457;52.190;4.440;2023-01-30T05:16:54;101706.28;;;7.76;100.00
69318;BME280;56457;52.190;4.440;2023-01-30T05:17:54;101708.75;;;7.68;100.00
69318;BME280;56457;52.190;4.440;2023-01-30T05:18:54;101713.13;;;7.68;100.00
69318;BME280;56457;52.190;4.440;2023-01-30T05:19:55;101704.38;;;7.66;100.00
69318;BME280;56457;52.190;4.440;2023-01-30T05:21:02;101707.03;;;7.69;100.00
69318;BME280;56457;52.190;4.440;2023-01-30T05:22:02;101709.63;;;7.69;100.00
69318;BME280;56457;52.190;4.440;2023-01-30T05:23:02;101711.34;;;7.65;100.00
69318;BME280;56457;52.190;4.440;2023-01-30T05:24:03;101721.72;;;7.64;100.00
69318;BME280;56457;52.190;4.440;2023-01-30T05:25:03;101725.25;;;7.64;100.00
69318;BME280;56457;52.190;4.440;2023-01-30T05:26:04;101708.72;;;7.65;100.00
69318;BME280;56457;52.190;4.440;2023-01-30T05:27:04;101718.28;;;7.65;100.00
69318;BME280;56457;52.190;4.440;2023-01-30T05:28:04;101721.81;;;7.67;100.00
69318;BME280;56457;52.190;4.440;2023-01-30T05:29:05;101719.19;;;7.65;100.00
69318;BME280;56457;52.190;4.440;2023-01-30T05:30:05;101715.59;;;7.60;100.00
69318;BME280;56457;52.190;4.440;2023-01-30T05:31:07;101725.19;;;7.63;100.00
69318;BME280;56457;52.190;4.440;2023-01-30T05:32:10;101715.69;;;7.65;100.00
69318;BME280;56457;52.190;4.440;2023-01-30T05:33:11;101719.97;;;7.63;100.00
69318;BME280;56457;52.190;4.440;2023-01-30T05:34:11;101725.09;;;7.56;100.00
69318;BME280;56457;52.190;4.440;2023-01-30T05:35:12;101728.56;;;7.55;100.00
69318;BME280;56457;52.190;4.440;2023-01-30T05:36:13;101738.16;;;7.56;100.00
69318;BME280;56457;52.190;4.440;2023-01-30T05:37:14;101738.09;;;7.53;100.00
69318;BME280;56457;52.190;4.440;2023-01-30T05:38:14;101740.59;;;7.47;100.00
69318;BME280;56457;52.190;4.440;2023-01-30T05:39:15;101732.03;;;7.54;100.00
69318;BME280;56457;52.190;4.440;2023-01-30T05:40:15;101719.81;;;7.52;100.00
69318;BME280;56457;52.190;4.440;2023-01-30T05:41:15;101735.47;;;7.52;100.00
69318;BME280;56457;52.190;4.440;2023-01-30T05:42:16;101728.41;;;7.48;100.00
69318;BME280;56457;52.190;4.440;2023-01-30T05:43:16;101732.91;;;7.55;100.00
69318;BME280;56457;52.190;4.440;2023-01-30T05:44:17;101724.09;;;7.50;100.00
69318;BME280;56457;52.190;4.440;2023-01-30T05:45:17;101722.41;;;7.52;100.00
69318;BME280;56457;52.190;4.440;2023-01-30T05:46:17;101726.81;;;7.56;100.00
69318;BME280;56457;52.190;4.440;2023-01-30T05:47:18;101722.44;;;7.53;100.00
69318;BME280;56457;52.190;4.440;2023-01-30T05:48:18;101712.88;;;7.54;100.00
69318;BME280;56457;52.190;4.440;2023-01-30T05:49:18;101714.69;;;7.58;100.00
69318;BME280;56457;52.190;4.440;2023-01-30T05:50:19;101724.97;;;7.50;100.00
69318;BME280;56457;52.190;4.440;2023-01-30T05:51:21;101730.19;;;7.50;100.00
69318;BME280;56457;52.190;4.440;2023-01-30T05:52:21;101724.06;;;7.47;100.00